createdAt,value
2023-02-27T00:00:14.582Z,70.10
2023-02-27T00:02:43.417Z,70.10
2023-02-27T00:05:10.783Z,70.10
2023-02-27T00:07:37.513Z,70.20
2023-02-27T00:10:05.052Z,70.20
2023-02-27T00:12:37.670Z,70.00
2023-02-27T00:15:14.486Z,70.10
2023-02-27T00:17:41.385Z,70.00
2023-02-27T00:20:13.465Z,70.10
2023-02-27T00:22:41.368Z,70.10
2023-02-27T00:25:09.596Z,70.00
2023-02-27T00:27:37.029Z,70.10
2023-02-27T00:30:09.055Z,70.10
2023-02-27T00:32:36.633Z,70.00
2023-02-27T00:35:04.940Z,69.90
2023-02-27T00:37:32.096Z,70.10
2023-02-27T00:39:58.709Z,70.00
2023-02-27T00:42:25.527Z,70.00
2023-02-27T00:44:52.201Z,70.10
2023-02-27T00:47:18.921Z,70.10
2023-02-27T00:49:47.070Z,70.00
2023-02-27T00:52:13.849Z,70.00
2023-02-27T00:54:40.447Z,70.20
2023-02-27T00:57:07.145Z,70.10
2023-02-27T00:59:33.875Z,70.10
2023-02-27T01:02:00.510Z,70.00
2023-02-27T01:04:27.275Z,70.10
2023-02-27T01:06:53.968Z,70.10
2023-02-27T01:09:20.784Z,70.10
2023-02-27T01:11:47.531Z,70.10
2023-02-27T01:14:15.008Z,70.00
2023-02-27T01:16:41.768Z,70.10
2023-02-27T01:19:08.682Z,70.00
2023-02-27T01:21:35.354Z,70.00
2023-02-27T01:24:02.173Z,70.00
2023-02-27T01:26:29.005Z,69.90
2023-02-27T01:28:55.634Z,70.00
2023-02-27T01:31:22.356Z,70.00
2023-02-27T01:33:49.086Z,70.10
2023-02-27T01:36:15.771Z,70.00
2023-02-27T01:38:42.599Z,70.00
2023-02-27T01:41:09.380Z,70.00
2023-02-27T01:43:54.670Z,70.00
2023-02-27T01:46:21.361Z,69.80
2023-02-27T01:48:48.106Z,69.90
2023-02-27T01:51:19.535Z,69.90
2023-02-27T01:53:49.119Z,69.80
2023-02-27T01:56:22.600Z,69.90
2023-02-27T01:58:51.208Z,69.70
2023-02-27T02:01:19.304Z,69.80
2023-02-27T02:03:45.941Z,69.80
2023-02-27T02:06:13.837Z,69.90
2023-02-27T02:08:44.872Z,69.90
2023-02-27T02:11:13.323Z,69.80
2023-02-27T02:13:41.672Z,69.60
2023-02-27T02:16:26.998Z,69.60
2023-02-27T02:19:31.577Z,69.50
2023-02-27T02:22:01.275Z,69.60
2023-02-27T02:25:09.562Z,69.60
2023-02-27T02:27:59.429Z,69.60
2023-02-27T02:30:51.890Z,69.60
2023-02-27T02:33:33.625Z,69.60
2023-02-27T02:36:09.573Z,69.70
2023-02-27T02:39:06.364Z,69.70
2023-02-27T02:41:41.107Z,69.60
2023-02-27T02:44:13.544Z,69.60
2023-02-27T02:46:54.491Z,69.70
2023-02-27T02:49:37.479Z,69.70
2023-02-27T02:52:18.152Z,69.80
2023-02-27T02:55:10.163Z,69.70
2023-02-27T02:57:46.140Z,69.80
2023-02-27T03:00:20.953Z,69.60
2023-02-27T03:02:59.561Z,69.70
2023-02-27T03:05:32.854Z,69.80
2023-02-27T03:08:13.727Z,69.90
2023-02-27T03:10:52.421Z,69.60
2023-02-27T03:13:36.073Z,69.70
2023-02-27T03:16:28.016Z,69.60
2023-02-27T03:19:00.257Z,69.70
2023-02-27T03:21:36.529Z,69.70
2023-02-27T03:24:07.563Z,69.60
2023-02-27T03:26:39.465Z,69.70
2023-02-27T03:29:19.097Z,69.80
2023-02-27T03:31:52.520Z,69.60
2023-02-27T03:34:24.195Z,69.70
2023-02-27T03:37:03.565Z,69.70
2023-02-27T03:40:19.154Z,69.70
2023-02-27T03:42:54.857Z,69.70
2023-02-27T03:45:30.361Z,69.70
2023-02-27T03:47:57.245Z,69.60
2023-02-27T03:50:23.992Z,69.70
2023-02-27T03:52:50.858Z,69.80
2023-02-27T03:55:21.704Z,69.80
2023-02-27T03:57:50.702Z,69.70
2023-02-27T04:00:21.189Z,69.90
2023-02-27T04:02:52.913Z,69.90
2023-02-27T04:05:20.937Z,70.00
2023-02-27T04:08:02.672Z,69.90
2023-02-27T04:10:44.327Z,69.60
2023-02-27T04:13:42.221Z,69.60
2023-02-27T04:16:45.903Z,69.60
2023-02-27T04:19:35.925Z,69.80
2023-02-27T04:22:17.921Z,69.80
2023-02-27T04:25:21.190Z,69.90
2023-02-27T04:27:58.235Z,69.90
2023-02-27T04:30:46.906Z,70.00
2023-02-27T04:33:25.561Z,70.00
2023-02-27T04:35:58.281Z,70.00
2023-02-27T04:38:37.187Z,69.90
2023-02-27T04:41:13.183Z,69.90
2023-02-27T04:43:42.001Z,69.90
2023-02-27T04:46:12.252Z,70.00
2023-02-27T04:48:48.835Z,70.00
2023-02-27T04:51:21.037Z,70.00
2023-02-27T04:54:07.029Z,70.00
2023-02-27T04:56:42.035Z,69.90
2023-02-27T04:59:19.904Z,69.90
2023-02-27T05:02:24.942Z,69.90
2023-02-27T05:05:01.053Z,69.90
2023-02-27T05:07:36.479Z,69.90
2023-02-27T05:10:08.255Z,70.00
2023-02-27T05:12:48.249Z,70.00
2023-02-27T05:15:22.082Z,70.00
2023-02-27T05:18:16.982Z,70.10
2023-02-27T05:21:08.635Z,70.10
2023-02-27T05:24:03.597Z,70.00
2023-02-27T05:26:43.701Z,69.90
2023-02-27T05:29:20.231Z,70.00
2023-02-27T05:32:04.661Z,69.90
2023-02-27T05:34:49.510Z,70.00
2023-02-27T05:37:23.048Z,70.00
2023-02-27T05:39:51.913Z,70.10
2023-02-27T05:42:34.430Z,70.20
2023-02-27T05:45:17.918Z,70.10
2023-02-27T05:47:49.311Z,70.10
2023-02-27T05:50:37.673Z,70.10
2023-02-27T05:53:10.740Z,70.20
2023-02-27T05:55:53.636Z,70.20
2023-02-27T05:58:27.896Z,70.20
2023-02-27T06:00:58.610Z,70.10
2023-02-27T06:03:26.976Z,70.20
2023-02-27T06:05:55.152Z,70.20
2023-02-27T06:08:22.641Z,70.20
2023-02-27T06:10:52.122Z,70.20
2023-02-27T06:13:19.211Z,70.20
2023-02-27T06:15:46.096Z,70.20
2023-02-27T06:18:14.795Z,70.20
2023-02-27T06:20:42.948Z,70.20
2023-02-27T06:23:10.941Z,70.10
2023-02-27T06:25:38.727Z,70.10
2023-02-27T06:28:05.857Z,70.10
2023-02-27T06:30:32.937Z,70.10
2023-02-27T06:33:00.889Z,70.20
2023-02-27T06:35:29.357Z,70.20
2023-02-27T06:37:56.895Z,70.10
2023-02-27T06:40:24.275Z,70.10
2023-02-27T06:42:50.964Z,70.10
2023-02-27T06:45:18.169Z,70.10
2023-02-27T06:47:45.009Z,70.00
2023-02-27T06:50:13.625Z,69.90
2023-02-27T06:52:40.517Z,69.90
2023-02-27T06:55:08.497Z,69.90
2023-02-27T06:57:35.229Z,70.00
2023-02-27T07:00:02.163Z,70.00
2023-02-27T07:02:28.822Z,70.10
2023-02-27T07:04:55.556Z,70.20
2023-02-27T07:07:34.709Z,70.10
2023-02-27T07:10:05.644Z,70.30
2023-02-27T07:12:32.289Z,70.30
2023-02-27T07:14:59.113Z,70.30
2023-02-27T07:17:25.906Z,70.40
2023-02-27T07:19:52.588Z,70.50
2023-02-27T07:22:19.292Z,70.50
2023-02-27T07:24:45.887Z,70.60
2023-02-27T07:27:12.485Z,70.70
2023-02-27T07:29:39.219Z,70.70
2023-02-27T07:32:06.069Z,70.60
2023-02-27T07:34:33.164Z,70.60
2023-02-27T07:36:59.780Z,70.60
2023-02-27T07:39:26.386Z,70.60
2023-02-27T07:41:53.024Z,70.60
2023-02-27T07:44:19.789Z,70.50
2023-02-27T07:46:47.406Z,70.60
2023-02-27T07:49:14.382Z,70.60
2023-02-27T07:51:41.155Z,70.60
2023-02-27T07:54:08.157Z,70.60
2023-02-27T07:56:34.832Z,70.60
2023-02-27T07:59:01.639Z,70.60
2023-02-27T08:01:28.324Z,70.60
2023-02-27T08:03:56.430Z,70.70
2023-02-27T08:06:23.585Z,70.70
2023-02-27T08:08:51.690Z,70.70
2023-02-27T08:11:18.497Z,70.70
2023-02-27T08:14:03.598Z,70.70
2023-02-27T08:16:31.971Z,70.80
2023-02-27T08:18:59.737Z,70.80
2023-02-27T08:21:27.512Z,70.80
2023-02-27T08:23:54.574Z,70.80
2023-02-27T08:26:21.388Z,70.80
2023-02-27T08:28:48.145Z,70.80
2023-02-27T08:31:14.982Z,70.80
2023-02-27T08:33:41.752Z,70.90
2023-02-27T08:36:08.488Z,70.90
2023-02-27T08:38:35.152Z,70.90
2023-02-27T08:41:01.827Z,70.80
2023-02-27T08:43:28.681Z,70.80
2023-02-27T08:45:55.364Z,70.80
2023-02-27T08:48:24.236Z,70.80
2023-02-27T08:50:51.407Z,70.80
2023-02-27T08:53:18.193Z,70.80
2023-02-27T08:55:48.509Z,70.90
2023-02-27T08:58:17.006Z,70.90
2023-02-27T09:00:43.974Z,70.90
2023-02-27T09:03:11.255Z,71.00
2023-02-27T09:05:38.500Z,71.00
2023-02-27T09:08:05.274Z,70.90
2023-02-27T09:10:33.047Z,71.00
2023-02-27T09:13:00.643Z,70.90
2023-02-27T09:15:27.606Z,70.90
2023-02-27T09:17:56.440Z,70.80
2023-02-27T09:20:23.160Z,70.90
2023-02-27T09:22:49.926Z,70.80
2023-02-27T09:25:16.783Z,70.80
2023-02-27T09:27:43.460Z,70.80
2023-02-27T09:30:10.884Z,70.90
2023-02-27T09:32:37.971Z,70.80
2023-02-27T09:35:04.958Z,70.90
2023-02-27T09:37:31.680Z,71.10
2023-02-27T09:39:58.357Z,71.00
2023-02-27T09:42:28.775Z,71.00
2023-02-27T09:45:05.848Z,70.80
2023-02-27T09:47:40.707Z,71.20
2023-02-27T09:50:18.012Z,71.10
2023-02-27T09:52:45.095Z,71.90
2023-02-27T09:55:19.054Z,71.50
2023-02-27T09:57:57.685Z,71.60
2023-02-27T10:00:41.188Z,71.80
2023-02-27T10:03:07.886Z,71.90
2023-02-27T10:06:10.596Z,72.30
2023-02-27T10:08:54.288Z,72.00
2023-02-27T10:11:53.170Z,72.00
2023-02-27T10:14:38.208Z,72.00
2023-02-27T10:17:29.951Z,72.10
2023-02-27T10:20:00.906Z,72.20
2023-02-27T10:22:37.692Z,72.40
2023-02-27T10:25:29.772Z,72.20
2023-02-27T10:28:01.884Z,72.30
2023-02-27T10:30:32.851Z,72.00
2023-02-27T10:33:21.416Z,72.40
2023-02-27T10:35:48.059Z,72.00
2023-02-27T10:38:35.261Z,72.20
2023-02-27T10:41:03.603Z,71.90
2023-02-27T10:43:30.596Z,72.90
2023-02-27T10:46:14.806Z,72.40
2023-02-27T10:48:41.586Z,72.20
2023-02-27T10:51:31.377Z,72.40
2023-02-27T10:54:18.367Z,72.70
2023-02-27T10:56:48.519Z,72.10
2023-02-27T10:59:20.183Z,71.80
2023-02-27T11:01:51.595Z,71.20
2023-02-27T11:04:33.240Z,71.20
2023-02-27T11:07:02.793Z,72.00
2023-02-27T11:09:33.069Z,71.70
2023-02-27T11:12:33.396Z,72.10
2023-02-27T11:15:16.399Z,71.80
2023-02-27T11:17:43.719Z,71.10
2023-02-27T11:20:29.332Z,72.10
2023-02-27T11:23:11.623Z,71.80
2023-02-27T11:25:38.306Z,70.50
2023-02-27T11:28:24.190Z,71.20
2023-02-27T11:31:17.888Z,70.20
2023-02-27T11:33:51.873Z,69.70
2023-02-27T11:36:18.842Z,70.40
2023-02-27T11:38:56.457Z,72.30
2023-02-27T11:41:35.666Z,71.70
2023-02-27T11:44:05.456Z,69.80
2023-02-27T11:46:46.647Z,71.90
2023-02-27T11:49:30.164Z,72.20
2023-02-27T11:52:20.728Z,71.20
2023-02-27T11:54:55.398Z,69.60
2023-02-27T11:57:24.902Z,68.80
2023-02-27T12:00:19.643Z,70.90
2023-02-27T12:02:53.161Z,66.80
2023-02-27T12:05:48.149Z,67.20
2023-02-27T12:08:43.012Z,67.00
2023-02-27T12:11:29.151Z,65.90
2023-02-27T12:14:03.045Z,67.50
2023-02-27T12:16:37.034Z,67.00
2023-02-27T12:19:19.431Z,66.70
2023-02-27T12:22:13.449Z,67.00
2023-02-27T12:25:13.610Z,65.90
2023-02-27T12:27:50.117Z,67.70
2023-02-27T12:30:23.083Z,66.90
2023-02-27T12:33:16.078Z,67.00
2023-02-27T12:35:46.035Z,66.40
2023-02-27T12:38:15.269Z,67.00
2023-02-27T12:40:57.749Z,65.50
2023-02-27T12:43:37.564Z,65.20
2023-02-27T12:46:34.582Z,67.10
2023-02-27T12:49:15.577Z,66.10
2023-02-27T12:52:07.355Z,64.50
2023-02-27T12:55:06.455Z,65.10
2023-02-27T12:57:52.025Z,66.40
2023-02-27T13:00:21.033Z,67.10
2023-02-27T13:03:35.714Z,68.10
2023-02-27T13:06:37.894Z,67.70
2023-02-27T13:09:13.499Z,66.60
2023-02-27T13:12:08.645Z,67.70
2023-02-27T13:14:47.568Z,66.00
2023-02-27T13:17:35.885Z,65.00
2023-02-27T13:20:20.946Z,62.40
2023-02-27T13:22:50.578Z,63.30
2023-02-27T13:25:18.170Z,67.10
2023-02-27T13:27:47.573Z,65.30
2023-02-27T13:30:18.116Z,64.20
2023-02-27T13:32:59.010Z,65.40
2023-02-27T13:35:42.696Z,65.40
2023-02-27T13:38:28.391Z,66.70
2023-02-27T13:40:55.095Z,66.10
2023-02-27T13:43:50.085Z,68.20
2023-02-27T13:46:27.093Z,65.90
2023-02-27T13:49:05.841Z,65.30
2023-02-27T13:51:35.488Z,65.80
2023-02-27T13:54:14.390Z,67.70
2023-02-27T13:56:53.221Z,66.60
2023-02-27T13:59:33.135Z,67.30
2023-02-27T14:02:10.385Z,67.10
2023-02-27T14:04:45.634Z,67.40
2023-02-27T14:07:18.493Z,66.90
2023-02-27T14:09:47.501Z,69.10
2023-02-27T14:12:43.998Z,67.40
2023-02-27T14:15:17.708Z,66.00
2023-02-27T14:17:46.371Z,66.80
2023-02-27T14:20:38.247Z,67.30
2023-02-27T14:23:20.465Z,66.30
2023-02-27T14:25:49.870Z,65.90
2023-02-27T14:28:23.354Z,67.10
2023-02-27T14:31:06.033Z,64.90
2023-02-27T14:33:43.865Z,65.10
2023-02-27T14:36:20.454Z,65.30
2023-02-27T14:38:48.212Z,65.30
2023-02-27T14:41:20.706Z,66.50
2023-02-27T14:43:55.766Z,66.50
2023-02-27T14:46:29.246Z,66.40
2023-02-27T14:48:58.303Z,66.40
2023-02-27T14:51:26.411Z,66.40
2023-02-27T14:54:20.835Z,66.40
2023-02-27T14:57:02.065Z,66.60
2023-02-27T14:59:33.894Z,66.00
2023-02-27T15:02:04.165Z,67.00
2023-02-27T15:04:33.018Z,67.00
2023-02-27T15:07:00.890Z,66.80
2023-02-27T15:09:42.998Z,67.40
2023-02-27T15:12:16.052Z,66.90
2023-02-27T15:14:47.058Z,66.40
2023-02-27T15:17:22.921Z,67.30
2023-02-27T15:19:59.638Z,66.70
2023-02-27T15:22:39.172Z,66.50
2023-02-27T15:25:07.884Z,66.50
2023-02-27T15:27:37.550Z,68.80
2023-02-27T15:30:05.260Z,67.80
2023-02-27T15:32:39.727Z,67.90
2023-02-27T15:35:17.605Z,67.90
2023-02-27T15:37:51.634Z,67.70
2023-02-27T15:40:26.014Z,67.70
2023-02-27T15:42:54.143Z,69.30
2023-02-27T15:45:27.809Z,69.10
2023-02-27T15:47:55.136Z,68.50
2023-02-27T15:50:35.934Z,68.60
2023-02-27T15:53:12.427Z,67.90
2023-02-27T15:55:42.778Z,68.40
2023-02-27T15:58:26.194Z,68.20
2023-02-27T16:01:01.498Z,68.50
2023-02-27T16:03:36.998Z,67.90
2023-02-27T16:06:11.727Z,67.70
2023-02-27T16:08:43.050Z,67.80
2023-02-27T16:11:19.185Z,70.60
2023-02-27T16:13:45.855Z,68.20
2023-02-27T16:16:23.469Z,68.20
2023-02-27T16:18:52.425Z,67.90
2023-02-27T16:21:23.496Z,68.60
2023-02-27T16:23:50.814Z,67.40
2023-02-27T16:26:32.099Z,68.70
2023-02-27T16:29:21.650Z,68.20
2023-02-27T16:31:54.572Z,67.70
2023-02-27T16:34:42.927Z,68.60
2023-02-27T16:37:21.662Z,68.10
2023-02-27T16:39:51.256Z,68.60
2023-02-27T16:42:18.142Z,68.80
2023-02-27T16:44:44.816Z,68.80
2023-02-27T16:47:38.205Z,68.50
2023-02-27T16:50:10.126Z,68.00
2023-02-27T16:52:36.839Z,68.50
2023-02-27T16:55:03.483Z,68.10
2023-02-27T16:57:30.150Z,68.00
2023-02-27T16:59:57.274Z,68.20
2023-02-27T17:02:23.918Z,68.10
2023-02-27T17:04:52.155Z,68.10
2023-02-27T17:07:19.300Z,68.40
2023-02-27T17:09:47.383Z,68.20
2023-02-27T17:12:14.347Z,68.30
2023-02-27T17:14:41.073Z,68.70
2023-02-27T17:17:07.991Z,68.80
2023-02-27T17:19:34.607Z,68.50
2023-02-27T17:22:01.253Z,68.50
2023-02-27T17:24:28.059Z,68.50
2023-02-27T17:26:54.882Z,69.00
2023-02-27T17:29:22.451Z,68.40
2023-02-27T17:31:49.336Z,68.30
2023-02-27T17:34:16.835Z,68.20
2023-02-27T17:36:43.701Z,68.60
2023-02-27T17:39:13.985Z,68.70
2023-02-27T17:41:41.807Z,68.80
2023-02-27T17:44:11.113Z,69.00
2023-02-27T17:46:38.081Z,69.00
2023-02-27T17:49:04.866Z,69.20
2023-02-27T17:51:32.406Z,69.20
2023-02-27T17:54:04.515Z,69.30
2023-02-27T17:56:31.692Z,69.10
2023-02-27T17:58:58.744Z,69.40
2023-02-27T18:01:26.502Z,69.30
2023-02-27T18:03:54.262Z,69.40
2023-02-27T18:06:21.491Z,69.50
2023-02-27T18:08:49.311Z,69.50
2023-02-27T18:11:19.005Z,69.50
2023-02-27T18:13:46.529Z,69.60
2023-02-27T18:16:13.667Z,69.70
2023-02-27T18:18:42.361Z,69.70
2023-02-27T18:21:19.858Z,69.30
2023-02-27T18:23:47.287Z,69.20
2023-02-27T18:26:29.499Z,69.60
2023-02-27T18:29:03.630Z,69.50
2023-02-27T18:31:36.210Z,69.40
2023-02-27T18:34:04.104Z,69.50
2023-02-27T18:36:31.855Z,69.60
2023-02-27T18:38:59.757Z,69.60
2023-02-27T18:41:26.965Z,69.50
2023-02-27T18:43:53.655Z,69.70
2023-02-27T18:46:20.820Z,69.70
2023-02-27T18:48:47.585Z,69.70
2023-02-27T18:51:15.966Z,69.90
2023-02-27T18:53:45.985Z,69.60
2023-02-27T18:56:13.895Z,69.90
2023-02-27T18:58:40.698Z,70.10
2023-02-27T19:01:08.391Z,70.10
2023-02-27T19:03:36.027Z,70.10
2023-02-27T19:06:08.097Z,69.90
2023-02-27T19:08:34.768Z,70.00
2023-02-27T19:11:01.499Z,70.20
2023-02-27T19:13:28.163Z,70.10
2023-02-27T19:15:54.930Z,70.10
2023-02-27T19:18:21.582Z,70.20
2023-02-27T19:20:48.221Z,70.20
2023-02-27T19:23:14.928Z,70.00
2023-02-27T19:25:41.990Z,70.00
2023-02-27T19:28:11.161Z,70.00
2023-02-27T19:30:39.643Z,69.90
2023-02-27T19:33:06.637Z,69.90
2023-02-27T19:35:33.429Z,70.00
2023-02-27T19:38:11.543Z,69.90
2023-02-27T19:40:49.381Z,70.10
2023-02-27T19:43:33.042Z,69.60
2023-02-27T19:46:14.460Z,70.00
2023-02-27T19:49:01.206Z,69.70
2023-02-27T19:51:52.391Z,70.00
2023-02-27T19:54:19.596Z,70.00
2023-02-27T19:56:46.208Z,70.10
2023-02-27T19:59:13.216Z,70.20
2023-02-27T20:01:40.058Z,70.20
2023-02-27T20:04:07.829Z,70.20
2023-02-27T20:06:42.067Z,70.30
2023-02-27T20:09:13.187Z,70.30
2023-02-27T20:11:40.616Z,70.30
2023-02-27T20:14:07.538Z,70.30
2023-02-27T20:16:37.436Z,70.30
2023-02-27T20:19:05.217Z,70.50
2023-02-27T20:21:33.491Z,70.40
2023-02-27T20:24:00.927Z,70.30
2023-02-27T20:26:29.710Z,70.30
2023-02-27T20:29:00.217Z,70.30
2023-02-27T20:31:29.404Z,70.40
2023-02-27T20:33:57.213Z,70.30
2023-02-27T20:36:24.238Z,70.10
2023-02-27T20:38:50.968Z,70.40
2023-02-27T20:41:22.101Z,70.40
2023-02-27T20:43:52.139Z,70.30
2023-02-27T20:46:23.214Z,70.30
2023-02-27T20:48:50.918Z,70.40
2023-02-27T20:51:20.938Z,70.60
2023-02-27T20:53:50.499Z,70.60
2023-02-27T20:56:20.732Z,70.70
2023-02-27T20:58:47.653Z,70.50
2023-02-27T21:01:15.915Z,70.70
2023-02-27T21:03:44.742Z,70.60
2023-02-27T21:06:15.157Z,70.70
2023-02-27T21:08:44.755Z,70.50
2023-02-27T21:11:20.754Z,70.60
2023-02-27T21:13:48.142Z,70.60
2023-02-27T21:16:17.941Z,70.70
2023-02-27T21:18:45.382Z,70.70
2023-02-27T21:21:16.108Z,70.80
2023-02-27T21:23:43.651Z,70.70
2023-02-27T21:26:17.229Z,70.80
2023-02-27T21:28:47.864Z,70.60
2023-02-27T21:31:19.491Z,70.80
2023-02-27T21:33:46.709Z,70.80
2023-02-27T22:00:14.529Z,71.20
2023-02-27T22:02:41.236Z,71.20
2023-02-27T22:05:08.408Z,71.30
2023-02-27T22:49:51.171Z,70.90
2023-02-27T22:52:18.346Z,71.10
2023-02-27T22:54:45.038Z,71.20
2023-02-27T22:57:11.798Z,71.20
2023-02-27T22:59:38.553Z,71.10
2023-02-27T23:11:15.831Z,70.90
2023-02-27T23:13:42.666Z,70.90
2023-02-27T23:16:13.701Z,70.90
2023-02-27T23:18:41.940Z,70.90
